Time;durP1;ratioP1;P1;durP2;ratioP2;P2;SDS_P1;SDS_P2;PMS_P1;PMS_P2;Temp;Humidity;BMP_temperature;BMP_pressure;BME280_temperature;BME280_humidity;BME280_pressure;Samples;Min_cycle;Max_cycle;Signal;HPM_P1;HPM_P2
2021/06/09 00:02:02;;;;;;;0.10;0.10;;;20.00;75.20;;;;;;4415403;32;20077;-59
2021/06/09 00:04:28;;;;;;;0.80;0.30;;;20.00;75.30;;;;;;4414983;32;20524;-57
2021/06/09 00:06:54;;;;;;;0.20;0.20;;;20.00;73.60;;;;;;4415188;32;20070;-58
2021/06/09 00:09:19;;;;;;;0.20;0.20;;;20.00;74.10;;;;;;4400071;32;20256;-58
2021/06/09 00:11:45;;;;;;;0.47;0.40;;;20.10;75.10;;;;;;4414231;32;20065;-59
2021/06/09 00:14:13;;;;;;;0.17;0.17;;;20.00;75.90;;;;;;4413133;32;20069;-59
2021/06/09 00:16:39;;;;;;;0.20;0.20;;;19.80;76.50;;;;;;4429991;32;20069;-56
2021/06/09 00:19:05;;;;;;;0.10;0.10;;;19.50;76.60;;;;;;4416758;32;20078;-58
2021/06/09 00:21:31;;;;;;;0.57;0.30;;;19.40;76.80;;;;;;4430440;32;20082;-56
2021/06/09 00:23:56;;;;;;;0.43;0.22;;;19.40;77.20;;;;;;4429544;32;20069;-58
2021/06/09 00:26:22;;;;;;;0.10;0.10;;;19.40;77.80;;;;;;4429067;32;20103;-57
2021/06/09 00:28:49;;;;;;;0.85;0.75;;;19.30;78.80;;;;;;4428828;32;20056;-57
2021/06/09 00:31:14;;;;;;;0.20;0.20;;;19.30;78.90;;;;;;4412012;32;20081;-60
2021/06/09 00:33:40;;;;;;;0.20;0.20;;;19.10;79.30;;;;;;4415216;32;20061;-60
2021/06/09 00:36:06;;;;;;;0.20;0.20;;;19.20;79.80;;;;;;4416599;32;20169;-59
2021/06/09 00:38:32;;;;;;;0.20;0.20;;;19.10;80.00;;;;;;4429467;32;20543;-57
2021/06/09 00:40:58;;;;;;;0.88;0.30;;;19.00;80.20;;;;;;4428709;32;20068;-56
2021/06/09 00:43:27;;;;;;;0.20;0.20;;;19.00;81.00;;;;;;4415433;32;20057;-58
2021/06/09 00:46:00;;;;;;;0.17;0.17;;;18.80;81.10;;;;;;4416258;32;20065;-60
2021/06/09 00:48:29;;;;;;;0.20;0.20;;;18.70;80.60;;;;;;4430713;32;20487;-58
2021/06/09 00:50:58;;;;;;;0.20;0.20;;;18.70;81.00;;;;;;4429430;32;20076;-58
2021/06/09 00:53:27;;;;;;;0.20;0.20;;;18.70;81.30;;;;;;4415927;32;20130;-58
2021/06/09 00:55:53;;;;;;;0.20;0.20;;;18.70;81.40;;;;;;4429605;32;20061;-56
2021/06/09 00:58:20;;;;;;;0.20;0.20;;;18.70;82.00;;;;;;4428066;32;20506;-58
2021/06/09 01:00:45;;;;;;;0.28;0.20;;;18.70;81.80;;;;;;4416822;32;20072;-57
2021/06/09 01:03:11;;;;;;;0.10;0.10;;;18.60;82.80;;;;;;4429738;32;20061;-57
2021/06/09 01:05:37;;;;;;;0.90;0.40;;;18.50;83.10;;;;;;4429192;32;20057;-58
2021/06/09 01:08:04;;;;;;;0.35;0.35;;;18.50;83.60;;;;;;4430419;32;20072;-58
2021/06/09 01:10:30;;;;;;;0.30;0.30;;;18.50;84.10;;;;;;4402198;32;20069;-57
2021/06/09 01:12:58;;;;;;;0.20;0.20;;;18.60;84.10;;;;;;4429996;32;20064;-59
2021/06/09 01:15:25;;;;;;;0.20;0.20;;;18.50;84.00;;;;;;4402980;32;20116;-57
2021/06/09 01:17:50;;;;;;;0.20;0.20;;;18.50;84.10;;;;;;4416432;32;20144;-59
2021/06/09 01:20:16;;;;;;;0.30;0.30;;;18.50;83.80;;;;;;4430009;32;20078;-59
2021/06/09 01:22:42;;;;;;;0.20;0.20;;;18.50;83.80;;;;;;4429943;32;20111;-58
2021/06/09 01:25:09;;;;;;;0.10;0.10;;;18.50;83.70;;;;;;4414938;32;20077;-60
2021/06/09 01:27:36;;;;;;;0.30;0.30;;;18.60;84.30;;;;;;4415662;32;20085;-57
2021/06/09 01:30:04;;;;;;;0.10;0.10;;;18.60;84.10;;;;;;4429448;32;20081;-59
2021/06/09 01:32:29;;;;;;;0.20;0.20;;;18.60;83.90;;;;;;4415124;32;20065;-59
2021/06/09 01:34:56;;;;;;;0.20;0.20;;;18.60;84.10;;;;;;4428799;32;20065;-59
2021/06/09 01:37:22;;;;;;;0.20;0.20;;;18.60;84.60;;;;;;4428706;32;20469;-58
2021/06/09 01:39:47;;;;;;;1.10;0.30;;;18.50;84.50;;;;;;4429149;32;20141;-60
2021/06/09 01:42:13;;;;;;;0.30;0.30;;;18.50;84.40;;;;;;4430036;32;20161;-59
2021/06/09 01:44:40;;;;;;;0.20;0.20;;;18.40;84.60;;;;;;4429316;32;20663;-59
2021/06/09 01:47:06;;;;;;;1.17;0.93;;;18.40;85.10;;;;;;4430029;32;20113;-58
2021/06/09 01:49:31;;;;;;;0.85;0.65;;;18.30;85.80;;;;;;4415870;32;20068;-59
2021/06/09 01:51:58;;;;;;;0.30;0.30;;;18.30;85.70;;;;;;4431141;32;20069;-60
2021/06/09 01:54:23;;;;;;;0.32;0.32;;;18.30;86.10;;;;;;4418367;32;20066;-59
2021/06/09 01:56:51;;;;;;;0.20;0.20;;;18.20;86.20;;;;;;4432229;32;20060;-57
2021/06/09 01:59:19;;;;;;;0.30;0.30;;;18.10;86.40;;;;;;4417142;32;20429;-56
2021/06/09 02:01:46;;;;;;;5.68;0.30;;;18.00;86.80;;;;;;4417968;32;20065;-59
2021/06/09 02:04:13;;;;;;;0.20;0.20;;;17.90;87.20;;;;;;4432317;32;20089;-58
2021/06/09 02:06:40;;;;;;;0.20;0.20;;;17.90;87.70;;;;;;4432138;32;20069;-60
2021/06/09 02:09:07;;;;;;;0.20;0.20;;;17.70;87.80;;;;;;4432946;32;20574;-59
2021/06/09 02:11:33;;;;;;;2.25;0.90;;;17.70;88.60;;;;;;4431179;32;20120;-59
2021/06/09 02:13:59;;;;;;;0.30;0.30;;;17.60;88.70;;;;;;4404964;32;20061;-60
2021/06/09 02:16:32;;;;;;;0.35;0.30;;;17.70;88.70;;;;;;4402811;32;20784;-59
2021/06/09 02:18:57;;;;;;;0.35;0.32;;;17.60;89.30;;;;;;4403076;32;20065;-59
2021/06/09 02:21:23;;;;;;;0.40;0.40;;;17.50;89.70;;;;;;4416411;32;20074;-59
2021/06/09 02:23:48;;;;;;;0.30;0.30;;;17.60;89.60;;;;;;4417589;32;20401;-57
2021/06/09 02:26:14;;;;;;;0.40;0.40;;;17.60;90.00;;;;;;4415962;32;20069;-59
2021/06/09 02:28:42;;;;;;;0.20;0.20;;;17.60;89.80;;;;;;4415641;32;20440;-59
2021/06/09 02:31:07;;;;;;;0.43;0.43;;;17.50;90.20;;;;;;4417227;32;20086;-59
2021/06/09 02:33:35;;;;;;;0.30;0.30;;;17.40;90.40;;;;;;4429001;32;20065;-60
2021/06/09 02:36:01;;;;;;;0.30;0.30;;;17.30;90.60;;;;;;4415782;32;20144;-58
2021/06/09 02:38:26;;;;;;;1.35;0.40;;;17.30;90.70;;;;;;4431682;32;20073;-60
2021/06/09 02:40:57;;;;;;;0.40;0.40;;;17.40;90.40;;;;;;4431015;32;20073;-59
2021/06/09 02:43:29;;;;;;;0.20;0.20;;;17.30;90.50;;;;;;4403878;32;20137;-60
2021/06/09 02:45:57;;;;;;;0.20;0.20;;;17.40;90.30;;;;;;4418167;32;20078;-56
2021/06/09 02:48:29;;;;;;;0.20;0.20;;;17.30;90.30;;;;;;4404790;32;20077;-58
2021/06/09 02:50:54;;;;;;;0.20;0.20;;;17.30;90.40;;;;;;4418379;32;20404;-58
2021/06/09 02:53:29;;;;;;;0.30;0.30;;;17.20;90.50;;;;;;4431777;32;20086;-60
2021/06/09 02:56:20;;;;;;;0.30;0.30;;;17.20;90.70;;;;;;4430868;32;20078;-58
2021/06/09 02:59:07;;;;;;;0.20;0.20;;;17.20;90.60;;;;;;4418665;32;20090;-56
2021/06/09 03:01:40;;;;;;;0.30;0.30;;;17.30;90.50;;;;;;4419716;32;20065;-58
2021/06/09 03:04:17;;;;;;;0.13;0.13;;;17.20;90.60;;;;;;4418350;32;20069;-59
2021/06/09 03:06:56;;;;;;;0.15;0.15;;;17.30;90.70;;;;;;4431441;32;20069;-59
2021/06/09 03:09:34;;;;;;;0.40;0.40;;;17.10;90.90;;;;;;4405632;32;20505;-59
2021/06/09 03:12:12;;;;;;;2.25;1.05;;;17.00;91.20;;;;;;4418512;32;20064;-58
2021/06/09 03:15:17;;;;;;;0.60;0.60;;;16.90;91.30;;;;;;4401707;32;20429;-57
2021/06/09 03:17:36;;;;;;;0.30;0.30;;;16.80;91.40;;;;;;4393562;32;20421;-58
2021/06/09 03:20:22;;;;;;;0.20;0.20;;;16.90;91.60;;;;;;4401777;32;20416;-59
2021/06/09 03:23:00;;;;;;;0.20;0.20;;;16.90;91.90;;;;;;4399250;32;20061;-59
2021/06/09 03:25:44;;;;;;;0.20;0.20;;;16.90;92.00;;;;;;4389231;32;20070;-59
2021/06/09 03:28:23;;;;;;;0.40;0.40;;;16.90;92.10;;;;;;4402982;32;20104;-59
2021/06/09 03:30:55;;;;;;;0.35;0.20;;;16.90;92.10;;;;;;4416068;32;20128;-59
2021/06/09 03:33:23;;;;;;;0.20;0.20;;;16.90;92.20;;;;;;4400857;32;20061;-60
2021/06/09 03:35:54;;;;;;;0.20;0.20;;;16.80;92.30;;;;;;4415406;32;20132;-59
2021/06/09 03:38:30;;;;;;;0.28;0.28;;;16.50;93.10;;;;;;4402272;32;20085;-59
2021/06/09 03:41:01;;;;;;;0.10;0.10;;;16.50;93.50;;;;;;4416153;32;20073;-59
2021/06/09 03:43:31;;;;;;;0.22;0.22;;;16.60;93.70;;;;;;4401737;32;20455;-59
2021/06/09 03:45:58;;;;;;;0.25;0.25;;;16.60;93.80;;;;;;4402702;32;20073;-58
2021/06/09 03:48:27;;;;;;;0.40;0.40;;;16.50;94.10;;;;;;4415644;32;20071;-58
2021/06/09 03:50:54;;;;;;;0.55;0.40;;;16.60;94.40;;;;;;4415968;32;20562;-59
2021/06/09 03:53:21;;;;;;;0.40;0.40;;;16.70;94.30;;;;;;4416371;32;20057;-59
2021/06/09 03:55:47;;;;;;;0.47;0.47;;;16.70;94.50;;;;;;4415907;32;20076;-60
2021/06/09 03:58:16;;;;;;;0.20;0.20;;;16.80;94.50;;;;;;4415181;32;20065;-57
2021/06/09 04:00:43;;;;;;;0.30;0.30;;;16.80;94.60;;;;;;4400394;32;20066;-56
2021/06/09 04:03:09;;;;;;;0.30;0.30;;;16.80;94.60;;;;;;4400582;32;20070;-59
2021/06/09 04:05:39;;;;;;;0.85;0.73;;;16.90;94.80;;;;;;4401607;32;20078;-59
2021/06/09 04:08:06;;;;;;;0.20;0.20;;;16.90;94.90;;;;;;4415533;32;20504;-59
2021/06/09 04:10:35;;;;;;;0.75;0.73;;;17.00;95.10;;;;;;4400807;32;20175;-59
2021/06/09 04:13:00;;;;;;;0.20;0.20;;;17.00;95.30;;;;;;4419821;32;20066;-59
2021/06/09 04:15:26;;;;;;;0.47;0.37;;;17.10;95.60;;;;;;4430701;32;20614;-57
2021/06/09 04:18:12;;;;;;;0.22;0.22;;;17.00;95.70;;;;;;4417205;32;20116;-59
2021/06/09 04:20:40;;;;;;;0.20;0.20;;;17.10;95.90;;;;;;4417463;32;20080;-57
2021/06/09 04:23:06;;;;;;;0.20;0.20;;;17.20;95.70;;;;;;4406511;32;20510;-59
2021/06/09 04:25:31;;;;;;;0.52;0.43;;;17.40;95.80;;;;;;4411538;32;20165;-59
2021/06/09 04:27:58;;;;;;;2.28;0.85;;;17.40;95.50;;;;;;4406453;32;20108;-59
2021/06/09 04:30:24;;;;;;;0.30;0.30;;;17.50;95.50;;;;;;4416390;32;20058;-58
2021/06/09 04:32:52;;;;;;;0.80;0.50;;;17.50;95.20;;;;;;4412459;32;20389;-59
2021/06/09 04:35:19;;;;;;;0.32;0.32;;;17.50;95.30;;;;;;4430099;32;20061;-56
2021/06/09 04:37:45;;;;;;;0.25;0.25;;;17.60;95.50;;;;;;4416223;32;20089;-59
2021/06/09 04:40:16;;;;;;;0.20;0.20;;;17.70;95.30;;;;;;4409930;32;20514;-58
2021/06/09 04:42:43;;;;;;;0.40;0.40;;;17.70;95.50;;;;;;4400384;32;20057;-58
2021/06/09 04:45:10;;;;;;;0.20;0.20;;;17.80;95.40;;;;;;4413938;32;20081;-59
2021/06/09 04:47:36;;;;;;;0.20;0.20;;;17.80;95.40;;;;;;4400250;32;20082;-58
2021/06/09 04:50:02;;;;;;;0.20;0.20;;;17.90;94.90;;;;;;4413948;32;20066;-57
2021/06/09 04:52:28;;;;;;;0.30;0.30;;;18.00;94.90;;;;;;4417388;32;20086;-57
2021/06/09 04:54:53;;;;;;;0.28;0.28;;;18.00;95.10;;;;;;4414425;32;20433;-58
2021/06/09 04:57:19;;;;;;;1.55;0.75;;;18.00;93.50;;;;;;4414437;32;20069;-58
2021/06/09 04:59:44;;;;;;;0.30;0.30;;;18.20;94.40;;;;;;4425566;32;20066;-57
2021/06/09 05:02:09;;;;;;;0.20;0.20;;;18.30;93.40;;;;;;4411416;32;20081;-58
2021/06/09 05:04:36;;;;;;;0.22;0.22;;;18.40;93.00;;;;;;4426554;32;20064;-58
2021/06/09 05:07:02;;;;;;;0.25;0.25;;;18.40;93.10;;;;;;4429246;32;20061;-57
2021/06/09 05:09:29;;;;;;;0.28;0.28;;;18.50;92.90;;;;;;4415434;32;20121;-59
2021/06/09 05:12:06;;;;;;;0.30;0.30;;;18.60;92.30;;;;;;4409188;32;20062;-59
2021/06/09 05:14:49;;;;;;;0.22;0.22;;;18.70;92.10;;;;;;4420627;32;20068;-59
2021/06/09 05:17:19;;;;;;;0.20;0.20;;;18.60;92.40;;;;;;4407104;32;20197;-59
2021/06/09 05:19:46;;;;;;;1.02;0.62;;;18.80;92.30;;;;;;4420008;32;20073;-55
2021/06/09 05:22:20;;;;;;;0.50;0.50;;;18.80;91.10;;;;;;4400071;32;20074;-59
2021/06/09 05:24:46;;;;;;;0.10;0.10;;;18.90;90.90;;;;;;4386354;32;20497;-58
2021/06/09 05:27:15;;;;;;;0.10;0.10;;;19.00;91.40;;;;;;4404426;32;20546;-58
2021/06/09 05:29:43;;;;;;;4.57;0.47;;;19.00;91.90;;;;;;4402489;32;20175;-59
2021/06/09 05:32:09;;;;;;;0.20;0.20;;;19.00;91.30;;;;;;4396311;32;20483;-58
2021/06/09 05:34:38;;;;;;;0.20;0.20;;;19.10;90.80;;;;;;4415771;32;20080;-57
2021/06/09 05:37:04;;;;;;;0.40;0.40;;;19.20;90.60;;;;;;4413585;32;20117;-58
2021/06/09 05:39:30;;;;;;;0.17;0.17;;;19.20;90.20;;;;;;4415677;32;20109;-57
2021/06/09 05:41:56;;;;;;;0.30;0.30;;;19.30;90.50;;;;;;4423554;32;20065;-57
2021/06/09 05:44:23;;;;;;;1.85;0.88;;;19.50;90.40;;;;;;4415603;32;20186;-60
2021/06/09 05:46:49;;;;;;;0.28;0.28;;;19.60;87.40;;;;;;4418616;32;20428;-58
2021/06/09 05:49:22;;;;;;;0.30;0.30;;;19.80;86.00;;;;;;4417018;32;20092;-57
2021/06/09 05:51:50;;;;;;;0.20;0.20;;;19.90;87.90;;;;;;4407307;32;20090;-57
2021/06/09 05:54:17;;;;;;;0.20;0.20;;;19.90;86.60;;;;;;4406501;32;20389;-59
2021/06/09 05:56:42;;;;;;;0.20;0.20;;;19.90;87.70;;;;;;4412063;32;20576;-58
2021/06/09 05:59:11;;;;;;;0.20;0.20;;;20.00;88.40;;;;;;4413606;32;20086;-58
2021/06/09 06:01:37;;;;;;;0.20;0.20;;;20.20;86.80;;;;;;4400571;32;20081;-59
2021/06/09 06:04:03;;;;;;;0.25;0.25;;;20.30;83.20;;;;;;4413168;32;20550;-59
2021/06/09 06:06:30;;;;;;;0.20;0.20;;;20.40;82.50;;;;;;4414210;32;20233;-59
2021/06/09 06:08:56;;;;;;;0.20;0.20;;;20.50;82.80;;;;;;4413228;32;20117;-56
2021/06/09 06:11:22;;;;;;;0.20;0.20;;;20.50;82.30;;;;;;4413837;32;20522;-59
2021/06/09 06:13:47;;;;;;;0.30;0.30;;;20.60;82.00;;;;;;4394466;32;20081;-59
2021/06/09 06:16:15;;;;;;;0.20;0.20;;;20.70;82.00;;;;;;4409719;32;20061;-58
2021/06/09 06:18:42;;;;;;;0.20;0.20;;;20.80;82.00;;;;;;4395988;32;20078;-60
2021/06/09 06:21:10;;;;;;;0.28;0.20;;;20.80;82.30;;;;;;4383105;32;20752;-61
2021/06/09 06:23:36;;;;;;;0.20;0.20;;;20.90;81.20;;;;;;4394982;32;20135;-59
2021/06/09 06:26:02;;;;;;;0.17;0.17;;;20.90;81.00;;;;;;4406802;32;20085;-58
2021/06/09 06:28:28;;;;;;;0.37;0.37;;;20.90;81.60;;;;;;4404764;32;20102;-60
2021/06/09 06:30:54;;;;;;;0.20;0.20;;;20.90;81.80;;;;;;4394751;32;20177;-58
2021/06/09 06:33:27;;;;;;;0.43;0.28;;;20.90;80.90;;;;;;4408268;32;20111;-59
2021/06/09 06:35:56;;;;;;;0.30;0.30;;;21.00;81.40;;;;;;4407480;32;20118;-59
2021/06/09 06:38:22;;;;;;;0.45;0.45;;;21.20;81.10;;;;;;4384989;32;20078;-57
2021/06/09 06:40:49;;;;;;;0.20;0.20;;;21.30;79.60;;;;;;4415622;32;20074;-59
2021/06/09 06:43:15;;;;;;;0.17;0.17;;;21.40;79.70;;;;;;4397647;32;20468;-59
2021/06/09 06:45:42;;;;;;;0.32;0.30;;;21.30;79.90;;;;;;4395200;32;21341;-59
2021/06/09 06:48:08;;;;;;;1.23;0.50;;;21.40;79.60;;;;;;4395329;32;20074;-59
2021/06/09 06:50:33;;;;;;;0.20;0.20;;;21.50;78.80;;;;;;4409204;32;20078;-59
2021/06/09 06:53:04;;;;;;;0.30;0.30;;;21.50;80.10;;;;;;4409345;32;20116;-60
2021/06/09 06:55:30;;;;;;;0.20;0.20;;;21.50;78.80;;;;;;4396558;32;20514;-60
2021/06/09 06:57:56;;;;;;;2.47;0.28;;;21.70;78.80;;;;;;4414281;32;20149;-59
2021/06/09 07:00:23;;;;;;;0.28;0.28;;;21.80;79.50;;;;;;4399859;32;20094;-60
2021/06/09 07:02:52;;;;;;;0.20;0.20;;;21.90;79.00;;;;;;4413370;32;20077;-60
2021/06/09 07:05:19;;;;;;;0.15;0.15;;;21.90;77.80;;;;;;4387109;32;20197;-57
2021/06/09 07:07:46;;;;;;;0.20;0.20;;;21.90;76.70;;;;;;4415375;32;20058;-58
2021/06/09 07:10:15;;;;;;;0.20;0.20;;;21.90;75.60;;;;;;4402310;32;20070;-59
2021/06/09 07:12:41;;;;;;;0.17;0.17;;;21.90;76.50;;;;;;4385104;32;20089;-59
2021/06/09 07:15:09;;;;;;;0.30;0.30;;;21.80;76.90;;;;;;4415552;32;20676;-58
2021/06/09 07:17:40;;;;;;;0.30;0.30;;;21.90;77.20;;;;;;4403127;32;21014;-56
2021/06/09 07:20:09;;;;;;;0.40;0.40;;;22.10;76.40;;;;;;4403848;32;20546;-57
2021/06/09 07:22:36;;;;;;;0.30;0.30;;;22.20;75.50;;;;;;4420228;32;20089;-59
2021/06/09 07:25:01;;;;;;;0.20;0.20;;;22.10;75.50;;;;;;4416809;32;20547;-59
2021/06/09 07:27:31;;;;;;;0.22;0.22;;;22.20;76.90;;;;;;4402278;32;20093;-59
2021/06/09 07:29:57;;;;;;;0.13;0.13;;;22.30;74.60;;;;;;4417132;32;20086;-60
2021/06/09 07:32:25;;;;;;;2.17;0.95;;;22.40;74.00;;;;;;4398281;32;20067;-60
2021/06/09 07:34:50;;;;;;;2.30;0.85;;;22.50;74.30;;;;;;4404700;32;20132;-58
2021/06/09 07:37:19;;;;;;;0.20;0.20;;;22.60;73.30;;;;;;4418765;32;20436;-59
2021/06/09 07:39:53;;;;;;;0.20;0.20;;;22.70;74.60;;;;;;4405914;32;20069;-59
2021/06/09 07:42:20;;;;;;;0.20;0.20;;;23.00;74.20;;;;;;4398917;32;20430;-59
2021/06/09 07:44:57;;;;;;;0.75;0.62;;;23.10;74.80;;;;;;4411154;32;20106;-59
2021/06/09 07:47:24;;;;;;;0.30;0.30;;;23.30;72.60;;;;;;4413159;32;20111;-59
2021/06/09 07:49:52;;;;;;;0.20;0.20;;;23.40;72.30;;;;;;4416761;32;20533;-58
2021/06/09 07:52:19;;;;;;;0.20;0.20;;;23.50;72.00;;;;;;4410862;32;20097;-60
2021/06/09 07:54:46;;;;;;;0.30;0.30;;;23.30;70.20;;;;;;4415272;32;20061;-59
2021/06/09 07:57:13;;;;;;;0.20;0.20;;;23.40;70.00;;;;;;4415794;32;20085;-57
2021/06/09 07:59:39;;;;;;;0.30;0.30;;;23.40;68.00;;;;;;4413489;32;20082;-56
2021/06/09 08:02:05;;;;;;;0.17;0.17;;;23.50;69.40;;;;;;4387498;32;20487;-59
2021/06/09 08:04:31;;;;;;;2.72;1.00;;;23.60;69.40;;;;;;4395615;32;20102;-58
2021/06/09 08:06:58;;;;;;;0.10;0.10;;;23.70;70.00;;;;;;4409820;32;20089;-61
2021/06/09 08:09:25;;;;;;;0.20;0.20;;;23.80;71.30;;;;;;4414249;32;20074;-57
2021/06/09 08:11:52;;;;;;;5.10;0.25;;;24.00;70.80;;;;;;4412668;32;20514;-58
2021/06/09 08:14:20;;;;;;;0.20;0.20;;;24.10;70.10;;;;;;4411558;32;20618;-58
2021/06/09 08:16:46;;;;;;;0.20;0.20;;;23.80;70.30;;;;;;4401293;32;20131;-58
2021/06/09 08:19:12;;;;;;;0.13;0.13;;;23.70;70.70;;;;;;4411899;32;20133;-58
2021/06/09 08:21:37;;;;;;;0.20;0.20;;;23.70;70.60;;;;;;4405195;32;20085;-58
2021/06/09 08:24:03;;;;;;;1.87;0.40;;;23.80;70.40;;;;;;4409972;32;20065;-58
2021/06/09 08:26:29;;;;;;;0.47;0.30;;;23.90;69.50;;;;;;4409519;32;20125;-59
2021/06/09 08:28:56;;;;;;;0.20;0.20;;;24.00;70.30;;;;;;4407267;32;20082;-59
2021/06/09 08:31:25;;;;;;;0.35;0.30;;;24.20;69.10;;;;;;4394590;32;20098;-55
2021/06/09 08:33:53;;;;;;;0.30;0.30;;;24.30;68.80;;;;;;4376935;32;20447;-59
2021/06/09 08:36:19;;;;;;;0.20;0.20;;;24.40;67.90;;;;;;4396854;32;20132;-58
2021/06/09 08:38:49;;;;;;;0.15;0.15;;;24.20;68.50;;;;;;4381564;32;20166;-59
2021/06/09 08:41:17;;;;;;;0.30;0.20;;;24.30;69.60;;;;;;4397396;32;20081;-59
2021/06/09 08:43:44;;;;;;;0.10;0.10;;;24.30;69.50;;;;;;4407513;32;20375;-59
2021/06/09 08:46:10;;;;;;;0.20;0.20;;;24.30;69.10;;;;;;4409606;32;20450;-59
2021/06/09 08:48:38;;;;;;;0.17;0.17;;;24.40;68.50;;;;;;4397048;32;20082;-58
2021/06/09 08:51:06;;;;;;;2.33;0.82;;;24.40;68.00;;;;;;4382204;32;20483;-59
2021/06/09 08:53:35;;;;;;;0.80;0.32;;;24.20;70.40;;;;;;4409534;32;20505;-58
2021/06/09 08:56:02;;;;;;;0.10;0.10;;;24.40;68.10;;;;;;4397050;32;20081;-59
2021/06/09 08:58:29;;;;;;;5.50;1.08;;;24.40;68.30;;;;;;4414562;32;20420;-58
2021/06/09 09:00:54;;;;;;;3.08;1.00;;;24.50;66.70;;;;;;4415050;32;20158;-57
2021/06/09 09:03:20;;;;;;;0.28;0.28;;;24.60;67.00;;;;;;4410230;32;20112;-59
2021/06/09 09:05:45;;;;;;;0.20;0.20;;;24.80;67.50;;;;;;4413146;32;20508;-57
2021/06/09 09:08:11;;;;;;;0.20;0.20;;;24.90;67.40;;;;;;4411273;32;20094;-55
2021/06/09 09:10:37;;;;;;;0.30;0.30;;;25.10;65.20;;;;;;4411780;32;21069;-57
2021/06/09 09:13:04;;;;;;;0.10;0.10;;;25.10;67.10;;;;;;4381593;32;20069;-58
2021/06/09 09:15:30;;;;;;;0.30;0.30;;;25.20;66.20;;;;;;4396641;32;20086;-58
2021/06/09 09:17:58;;;;;;;0.20;0.20;;;25.40;65.30;;;;;;4409378;32;20510;-59
2021/06/09 09:20:33;;;;;;;0.25;0.20;;;25.40;65.10;;;;;;4388390;32;20089;-59
2021/06/09 09:23:15;;;;;;;0.30;0.30;;;25.40;64.90;;;;;;4394173;32;20078;-59
2021/06/09 09:25:40;;;;;;;0.20;0.20;;;25.50;64.70;;;;;;4409070;32;20512;-60
2021/06/09 09:28:06;;;;;;;0.10;0.10;;;25.40;65.40;;;;;;4411809;32;20066;-59
2021/06/09 09:30:34;;;;;;;0.20;0.20;;;25.60;65.50;;;;;;4395246;32;20086;-57
2021/06/09 09:33:05;;;;;;;1.77;0.73;;;25.60;63.10;;;;;;4394129;32;20081;-58
2021/06/09 09:35:35;;;;;;;0.90;0.65;;;25.60;64.20;;;;;;4394567;32;20086;-58
2021/06/09 09:38:23;;;;;;;0.33;0.33;;;25.50;65.10;;;;;;4396057;32;20084;-59
2021/06/09 09:41:08;;;;;;;0.10;0.10;;;25.80;65.80;;;;;;4395727;32;75066;-58
2021/06/09 09:43:56;;;;;;;0.20;0.20;;;25.90;64.40;;;;;;4401630;32;20689;-58
2021/06/09 09:46:31;;;;;;;0.25;0.25;;;25.80;64.10;;;;;;4396712;32;20099;-59
2021/06/09 09:49:01;;;;;;;0.10;0.10;;;25.80;64.60;;;;;;4413028;32;20070;-59
2021/06/09 09:51:29;;;;;;;0.30;0.30;;;26.00;64.60;;;;;;4413165;32;20070;-59
2021/06/09 09:53:56;;;;;;;0.30;0.30;;;26.20;62.70;;;;;;4399757;32;20143;-59
2021/06/09 09:56:25;;;;;;;0.20;0.20;;;26.30;62.50;;;;;;4410547;32;20554;-59
2021/06/09 09:58:54;;;;;;;0.15;0.15;;;26.50;62.10;;;;;;4384537;32;20070;-58
2021/06/09 10:01:23;;;;;;;0.10;0.10;;;26.40;61.40;;;;;;4401686;32;20132;-58
2021/06/09 10:03:51;;;;;;;0.15;0.15;;;26.40;62.20;;;;;;4399137;32;20176;-59
2021/06/09 10:06:22;;;;;;;0.22;0.22;;;26.50;63.00;;;;;;4399071;32;20070;-59
2021/06/09 10:08:48;;;;;;;0.10;0.10;;;26.60;63.00;;;;;;4401103;32;20168;-59
2021/06/09 10:11:15;;;;;;;0.85;0.35;;;26.60;61.80;;;;;;4395409;32;20077;-58
2021/06/09 10:13:41;;;;;;;0.32;0.32;;;26.60;62.10;;;;;;4416593;32;20339;-59
2021/06/09 10:16:27;;;;;;;0.20;0.20;;;27.00;60.20;;;;;;4386470;32;20144;-59
2021/06/09 10:18:56;;;;;;;0.10;0.10;;;27.50;59.50;;;;;;4398232;32;20066;-59
2021/06/09 10:21:21;;;;;;;0.15;0.15;;;27.20;60.10;;;;;;4409583;32;20073;-58
2021/06/09 10:23:47;;;;;;;0.40;0.40;;;26.90;60.30;;;;;;4406144;32;20073;-59
2021/06/09 10:26:15;;;;;;;0.22;0.22;;;27.00;58.80;;;;;;4410879;32;20065;-60
2021/06/09 10:29:01;;;;;;;0.22;0.22;;;26.90;59.00;;;;;;4398341;32;20078;-59
2021/06/09 10:31:30;;;;;;;0.52;0.30;;;26.20;59.30;;;;;;4406024;32;20099;-59
2021/06/09 10:33:56;;;;;;;3.17;1.33;;;26.70;59.60;;;;;;4402025;32;20247;-58
2021/06/09 10:36:22;;;;;;;0.10;0.10;;;27.10;59.60;;;;;;4405514;32;20290;-59
2021/06/09 10:38:50;;;;;;;0.10;0.10;;;27.40;58.30;;;;;;4413581;32;20177;-60
2021/06/09 10:41:17;;;;;;;0.10;0.10;;;27.30;58.20;;;;;;4412033;32;20070;-63
2021/06/09 10:43:45;;;;;;;0.70;0.55;;;27.80;57.10;;;;;;4384935;32;20139;-60
2021/06/09 10:46:12;;;;;;;0.10;0.10;;;28.20;57.80;;;;;;4396996;32;20077;-63
2021/06/09 10:48:41;;;;;;;0.10;0.10;;;28.50;57.80;;;;;;4416905;32;20070;-60
2021/06/09 10:51:08;;;;;;;0.20;0.20;;;28.60;56.90;;;;;;4394155;32;20081;-61
2021/06/09 10:53:36;;;;;;;0.20;0.20;;;28.50;57.00;;;;;;4383417;32;20093;-61
2021/06/09 10:56:02;;;;;;;0.20;0.20;;;28.70;56.00;;;;;;4399056;32;20204;-59
2021/06/09 10:58:28;;;;;;;0.47;0.37;;;29.00;55.70;;;;;;4412990;32;20069;-61
2021/06/09 11:00:56;;;;;;;0.10;0.10;;;28.90;54.70;;;;;;4408092;32;20140;-60
2021/06/09 11:03:23;;;;;;;0.20;0.20;;;29.00;55.20;;;;;;4397415;32;20649;-61
2021/06/09 11:05:49;;;;;;;0.10;0.10;;;29.30;55.30;;;;;;4414001;32;20073;-61
2021/06/09 11:08:16;;;;;;;0.50;0.32;;;29.30;56.40;;;;;;4415560;32;20090;-60
2021/06/09 11:10:51;;;;;;;0.10;0.10;;;29.40;55.20;;;;;;4397301;32;20085;-61
2021/06/09 11:13:35;;;;;;;0.75;0.40;;;29.50;54.60;;;;;;4396469;32;20368;-61
2021/06/09 11:16:10;;;;;;;0.10;0.10;;;29.40;54.20;;;;;;4398744;32;20069;-60
2021/06/09 11:18:41;;;;;;;0.20;0.20;;;29.30;53.40;;;;;;4401857;32;20146;-61
2021/06/09 11:21:08;;;;;;;0.05;0.05;;;29.20;55.30;;;;;;4402967;32;20106;-61
2021/06/09 11:23:37;;;;;;;0.00;0.00;;;29.70;53.20;;;;;;4400332;32;20066;-61
2021/06/09 11:26:05;;;;;;;0.10;0.10;;;30.00;53.50;;;;;;4412892;32;20088;-61
2021/06/09 11:28:34;;;;;;;0.10;0.10;;;29.70;54.20;;;;;;4400843;32;20061;-61
2021/06/09 11:31:03;;;;;;;0.10;0.10;;;29.90;53.80;;;;;;4417979;32;20069;-61
2021/06/09 11:33:36;;;;;;;0.00;0.00;;;30.00;53.80;;;;;;4419941;32;20081;-61
2021/06/09 11:36:06;;;;;;;0.00;0.00;;;30.40;52.80;;;;;;4414394;32;20069;-61
2021/06/09 11:38:37;;;;;;;0.00;0.00;;;30.50;53.60;;;;;;4418756;32;20692;-62
2021/06/09 11:41:06;;;;;;;0.10;0.10;;;31.00;52.60;;;;;;4399424;32;20495;-61
2021/06/09 11:43:36;;;;;;;0.00;0.00;;;31.30;52.20;;;;;;4406257;32;20073;-61
2021/06/09 11:46:07;;;;;;;0.00;0.00;;;31.30;51.00;;;;;;4415082;32;20511;-61
2021/06/09 11:48:33;;;;;;;0.30;0.15;;;31.10;49.80;;;;;;4396105;32;20100;-61
2021/06/09 11:51:22;;;;;;;0.30;0.30;;;31.20;51.10;;;;;;4393541;32;20089;-61
2021/06/09 11:53:49;;;;;;;0.10;0.10;;;31.60;50.10;;;;;;4399715;32;20110;-61
2021/06/09 11:56:43;;;;;;;0.15;0.15;;;31.60;50.40;;;;;;4391098;32;20077;-61
2021/06/09 11:59:28;;;;;;;0.00;0.00;;;31.70;50.80;;;;;;4399343;32;20093;-62
2021/06/09 12:01:55;;;;;;;0.40;0.35;;;32.00;48.90;;;;;;4403144;32;20100;-61
2021/06/09 12:04:26;;;;;;;0.10;0.10;;;32.10;49.20;;;;;;4398863;32;20458;-61
2021/06/09 12:06:57;;;;;;;0.55;0.32;;;32.40;50.10;;;;;;4404828;32;20070;-61
2021/06/09 12:09:23;;;;;;;0.37;0.03;;;32.60;49.40;;;;;;4418313;32;20069;-60
2021/06/09 12:11:52;;;;;;;0.10;0.10;;;32.90;48.40;;;;;;4400770;32;20081;-61
2021/06/09 12:14:21;;;;;;;0.03;0.03;;;32.90;47.70;;;;;;4412493;32;20070;-61
2021/06/09 12:16:48;;;;;;;0.30;0.30;;;33.00;47.90;;;;;;4399370;32;20181;-60
2021/06/09 12:19:23;;;;;;;0.30;0.30;;;33.30;47.90;;;;;;4418708;32;20108;-63
2021/06/09 12:21:49;;;;;;;0.00;0.00;;;33.00;47.20;;;;;;4415666;32;20389;-61
2021/06/09 12:24:16;;;;;;;0.10;0.10;;;32.40;47.60;;;;;;4386965;32;20077;-60
2021/06/09 12:26:52;;;;;;;0.70;0.50;;;32.60;48.20;;;;;;4412826;32;20077;-62
2021/06/09 12:29:23;;;;;;;0.20;0.20;;;32.70;48.70;;;;;;4412683;32;20129;-60
2021/06/09 12:31:49;;;;;;;0.10;0.10;;;33.20;47.50;;;;;;4406416;32;20648;-60
2021/06/09 12:34:24;;;;;;;0.60;0.55;;;33.70;46.70;;;;;;4409801;32;20175;-60
2021/06/09 12:36:55;;;;;;;0.35;0.25;;;34.00;45.50;;;;;;4397381;32;20094;-60
2021/06/09 12:39:23;;;;;;;0.00;0.00;;;34.10;46.20;;;;;;4413251;32;20098;-60
2021/06/09 12:41:50;;;;;;;1.17;0.20;;;34.20;45.90;;;;;;4396529;32;20065;-60
2021/06/09 12:44:17;;;;;;;0.10;0.10;;;34.70;45.40;;;;;;4408602;32;20096;-59
2021/06/09 12:47:00;;;;;;;0.10;0.10;;;34.60;46.40;;;;;;4409622;32;20069;-60
2021/06/09 12:49:31;;;;;;;0.03;0.03;;;34.80;45.40;;;;;;4395240;32;20099;-60
2021/06/09 12:52:03;;;;;;;0.00;0.00;;;34.50;44.00;;;;;;4398588;32;20078;-61
2021/06/09 12:54:28;;;;;;;0.10;0.10;;;34.20;45.20;;;;;;4413511;32;20090;-59
2021/06/09 12:56:53;;;;;;;1.65;0.43;;;34.50;45.20;;;;;;4411098;32;20069;-59